Time;durP1;ratioP1;P1;durP2;ratioP2;P2;SDS_P1;SDS_P2;PMS_P1;PMS_P2;Temp;Humidity;BMP_temperature;BMP_pressure;BME280_temperature;BME280_humidity;BME280_pressure;Samples;Min_cycle;Max_cycle;Signal;HPM_P1;HPM_P2
2024/01/04 00:01:53;;;;;;;3.55;0.43;;;;;;;;;;5002304;28;20046;-77
2024/01/04 00:04:19;;;;;;;0.68;0.20;;;;;;;;;;5005002;28;20018;-77
2024/01/04 00:06:45;;;;;;;0.10;0.05;;;;;;;;;;5000737;28;20026;-77
2024/01/04 00:09:12;;;;;;;1.65;0.30;;;;;;;;;;5010142;28;20086;-77
2024/01/04 00:11:38;;;;;;;0.75;0.20;;;;;;;;;;5004101;28;20076;-79
2024/01/04 00:14:07;;;;;;;0.85;0.30;;;;;;;;;;4999291;28;20065;-78
2024/01/04 00:16:33;;;;;;;0.43;0.30;;;;;;;;;;4998840;28;20076;-76
2024/01/04 00:18:59;;;;;;;0.50;0.20;;;;;;;;;;4995368;28;20027;-78
2024/01/04 00:21:26;;;;;;;1.55;0.45;;;;;;;;;;5000689;28;20036;-76
2024/01/04 00:23:52;;;;;;;0.75;0.32;;;;;;;;;;5001017;28;20022;-79
2024/01/04 00:26:18;;;;;;;1.77;0.22;;;;;;;;;;4998090;28;20029;-79
2024/01/04 00:28:44;;;;;;;4.80;0.52;;;;;;;;;;5015729;28;20014;-78
2024/01/04 00:31:10;;;;;;;0.55;0.20;;;;;;;;;;5011006;28;20057;-79
2024/01/04 00:33:36;;;;;;;1.45;0.40;;;;;;;;;;5007673;28;20085;-78
2024/01/04 00:36:02;;;;;;;0.73;0.30;;;;;;;;;;5002321;28;20482;-78
2024/01/04 00:38:28;;;;;;;0.32;0.22;;;;;;;;;;5010127;28;20097;-78
2024/01/04 00:40:55;;;;;;;0.50;0.13;;;;;;;;;;5002473;28;20089;-77
2024/01/04 00:43:21;;;;;;;1.75;0.30;;;;;;;;;;5010888;28;20038;-79
2024/01/04 00:45:47;;;;;;;0.55;0.30;;;;;;;;;;5001592;28;20398;-77
2024/01/04 00:48:13;;;;;;;0.65;0.30;;;;;;;;;;4999963;28;20036;-77
2024/01/04 00:50:39;;;;;;;1.27;0.30;;;;;;;;;;5000849;28;20049;-76
2024/01/04 00:53:05;;;;;;;1.75;0.28;;;;;;;;;;5011537;28;20030;-76
2024/01/04 00:55:31;;;;;;;2.25;0.40;;;;;;;;;;5014921;28;20030;-79
2024/01/04 00:57:57;;;;;;;1.73;0.13;;;;;;;;;;5025621;28;20056;-76
2024/01/04 01:00:23;;;;;;;0.30;0.20;;;;;;;;;;5034331;28;20010;-77
2024/01/04 01:02:50;;;;;;;2.85;0.47;;;;;;;;;;5034542;28;20029;-78
2024/01/04 01:05:16;;;;;;;0.30;0.30;;;;;;;;;;5030782;28;20030;-77
2024/01/04 01:07:42;;;;;;;0.43;0.25;;;;;;;;;;5036209;28;20018;-76
2024/01/04 01:10:08;;;;;;;0.20;0.20;;;;;;;;;;5037252;28;20022;-76
2024/01/04 01:12:34;;;;;;;0.88;0.25;;;;;;;;;;5038177;28;20056;-77
2024/01/04 01:15:00;;;;;;;1.08;0.30;;;;;;;;;;5039790;28;20037;-77
2024/01/04 01:17:26;;;;;;;1.17;0.30;;;;;;;;;;5032042;28;20033;-78
2024/01/04 01:19:52;;;;;;;0.52;0.10;;;;;;;;;;5026960;28;20030;-77
2024/01/04 01:22:19;;;;;;;0.70;0.20;;;;;;;;;;5022370;28;20026;-76
2024/01/04 01:24:45;;;;;;;1.35;0.30;;;;;;;;;;5025700;28;20018;-77
2024/01/04 01:27:11;;;;;;;0.55;0.30;;;;;;;;;;5025821;28;20036;-78
2024/01/04 01:29:37;;;;;;;1.90;0.47;;;;;;;;;;5026566;28;20389;-79
2024/01/04 01:32:03;;;;;;;1.38;0.30;;;;;;;;;;5029643;28;20021;-79
2024/01/04 01:34:29;;;;;;;1.35;0.30;;;;;;;;;;5028730;28;20025;-78
2024/01/04 01:36:57;;;;;;;0.98;0.38;;;;;;;;;;5030306;28;20366;-78
2024/01/04 01:39:24;;;;;;;2.22;0.50;;;;;;;;;;5031824;28;20055;-77
2024/01/04 01:41:51;;;;;;;1.73;0.40;;;;;;;;;;5027252;28;20511;-78
2024/01/04 01:44:18;;;;;;;1.00;0.20;;;;;;;;;;5034899;28;20018;-78
2024/01/04 01:46:44;;;;;;;1.10;0.30;;;;;;;;;;5032654;28;20378;-77
2024/01/04 01:49:10;;;;;;;1.48;0.20;;;;;;;;;;5028908;28;20051;-76
2024/01/04 01:51:37;;;;;;;0.73;0.10;;;;;;;;;;5026802;28;20033;-77
2024/01/04 01:54:04;;;;;;;1.25;0.30;;;;;;;;;;5023916;28;20034;-78
2024/01/04 01:56:31;;;;;;;2.55;0.30;;;;;;;;;;5019139;28;20034;-75
2024/01/04 01:58:58;;;;;;;1.25;0.13;;;;;;;;;;5026879;28;20085;-76
2024/01/04 02:01:24;;;;;;;1.00;0.40;;;;;;;;;;5021413;28;20524;-76
2024/01/04 02:03:50;;;;;;;0.60;0.30;;;;;;;;;;5023520;28;20022;-75
2024/01/04 02:06:17;;;;;;;4.78;0.40;;;;;;;;;;5030118;28;20121;-76
2024/01/04 02:08:46;;;;;;;0.28;0.20;;;;;;;;;;5033386;28;20010;-77
2024/01/04 02:11:12;;;;;;;1.63;0.50;;;;;;;;;;5039528;28;20033;-74
2024/01/04 02:13:38;;;;;;;0.95;0.20;;;;;;;;;;5043128;28;20017;-75
2024/01/04 02:16:04;;;;;;;0.13;0.10;;;;;;;;;;5039826;28;20020;-75
2024/01/04 02:18:31;;;;;;;2.75;0.38;;;;;;;;;;5032239;28;20032;-76
2024/01/04 02:20:57;;;;;;;2.53;0.40;;;;;;;;;;5035529;28;20017;-74
2024/01/04 02:23:23;;;;;;;1.63;0.30;;;;;;;;;;5033708;28;20033;-76
2024/01/04 02:25:49;;;;;;;2.90;0.35;;;;;;;;;;5038414;28;20036;-73
2024/01/04 02:28:16;;;;;;;1.60;0.57;;;;;;;;;;5034314;28;20048;-76
2024/01/04 02:30:42;;;;;;;1.95;0.30;;;;;;;;;;5042502;28;20040;-74
2024/01/04 02:33:08;;;;;;;1.10;0.40;;;;;;;;;;5047153;28;20017;-74
2024/01/04 02:35:34;;;;;;;0.47;0.10;;;;;;;;;;5035559;28;20025;-75
2024/01/04 02:38:00;;;;;;;2.17;0.32;;;;;;;;;;5031853;28;20033;-77
2024/01/04 02:40:28;;;;;;;1.77;0.35;;;;;;;;;;5042030;28;20025;-77
2024/01/04 02:42:54;;;;;;;1.45;0.30;;;;;;;;;;5035498;28;20025;-75
2024/01/04 02:45:20;;;;;;;2.80;0.50;;;;;;;;;;5037317;28;20034;-73
2024/01/04 02:47:46;;;;;;;0.95;0.57;;;;;;;;;;5045923;28;20021;-75
2024/01/04 02:50:13;;;;;;;1.67;0.20;;;;;;;;;;5042360;28;20033;-74
2024/01/04 02:52:39;;;;;;;0.17;0.10;;;;;;;;;;5041837;28;20121;-73
2024/01/04 02:55:05;;;;;;;3.50;0.50;;;;;;;;;;5040445;28;20030;-74
2024/01/04 02:57:31;;;;;;;1.55;0.45;;;;;;;;;;5035373;28;20053;-77
2024/01/04 02:59:58;;;;;;;1.33;0.30;;;;;;;;;;5038956;28;20016;-74
2024/01/04 03:02:24;;;;;;;2.83;0.43;;;;;;;;;;5043645;28;20112;-75
2024/01/04 03:04:50;;;;;;;2.13;0.30;;;;;;;;;;5039518;28;20095;-74
2024/01/04 03:07:16;;;;;;;5.53;0.50;;;;;;;;;;5030751;28;20033;-74
2024/01/04 03:09:42;;;;;;;0.32;0.15;;;;;;;;;;5027730;28;20026;-76
2024/01/04 03:12:08;;;;;;;0.28;0.15;;;;;;;;;;5038523;28;20026;-76
2024/01/04 03:14:35;;;;;;;0.68;0.22;;;;;;;;;;5028156;28;20036;-74
2024/01/04 03:17:01;;;;;;;2.53;0.30;;;;;;;;;;5040637;28;20006;-73
2024/01/04 03:19:27;;;;;;;1.77;0.40;;;;;;;;;;5031252;28;20023;-75
2024/01/04 03:21:53;;;;;;;1.48;0.20;;;;;;;;;;5033402;28;20112;-75
2024/01/04 03:24:19;;;;;;;1.83;0.50;;;;;;;;;;5040469;28;20015;-76
2024/01/04 03:26:45;;;;;;;0.75;0.30;;;;;;;;;;5043147;28;20017;-77
2024/01/04 03:29:11;;;;;;;1.98;0.17;;;;;;;;;;5038034;28;20036;-75
2024/01/04 03:31:37;;;;;;;1.85;0.28;;;;;;;;;;5040172;28;20032;-75
2024/01/04 03:34:04;;;;;;;1.10;0.43;;;;;;;;;;5038405;28;20014;-78
2024/01/04 03:36:30;;;;;;;2.50;0.30;;;;;;;;;;5037172;28;20016;-73
2024/01/04 03:38:56;;;;;;;1.48;0.30;;;;;;;;;;5031787;28;20047;-74
2024/01/04 03:41:22;;;;;;;1.48;0.20;;;;;;;;;;5038454;28;20025;-75
2024/01/04 03:43:48;;;;;;;0.85;0.17;;;;;;;;;;5041751;28;20331;-76
2024/01/04 03:46:15;;;;;;;3.58;0.55;;;;;;;;;;5037591;28;20029;-75
2024/01/04 03:48:41;;;;;;;0.00;0.00;;;;;;;;;;5045399;28;20046;-76
2024/01/04 03:51:07;;;;;;;2.75;0.20;;;;;;;;;;5023948;28;20559;-74
2024/01/04 03:53:33;;;;;;;0.10;0.00;;;;;;;;;;5034494;28;20025;-76
2024/01/04 03:55:59;;;;;;;1.65;0.20;;;;;;;;;;5036632;28;20029;-74
2024/01/04 03:58:25;;;;;;;0.80;0.22;;;;;;;;;;5031767;28;20021;-75
2024/01/04 04:00:51;;;;;;;0.57;0.10;;;;;;;;;;5036543;28;20048;-74
2024/01/04 04:03:19;;;;;;;0.90;0.20;;;;;;;;;;5031137;28;20026;-76
2024/01/04 04:05:45;;;;;;;0.98;0.10;;;;;;;;;;5035639;28;20117;-76
2024/01/04 04:08:11;;;;;;;1.17;0.40;;;;;;;;;;5031312;28;20069;-76
2024/01/04 04:10:38;;;;;;;0.55;0.20;;;;;;;;;;5047958;28;20488;-74
2024/01/04 04:13:04;;;;;;;1.55;0.20;;;;;;;;;;5040107;28;20021;-77
2024/01/04 04:15:30;;;;;;;0.35;0.10;;;;;;;;;;5026150;28;20022;-75
2024/01/04 04:17:56;;;;;;;1.33;0.20;;;;;;;;;;5044050;28;20038;-73
2024/01/04 04:20:22;;;;;;;2.13;0.47;;;;;;;;;;5045000;28;20031;-75
2024/01/04 04:22:48;;;;;;;2.53;0.30;;;;;;;;;;5041340;28;20061;-73
2024/01/04 04:25:14;;;;;;;0.45;0.10;;;;;;;;;;5041166;28;20028;-73
2024/01/04 04:27:41;;;;;;;2.38;0.40;;;;;;;;;;5049622;28;20041;-74
2024/01/04 04:30:07;;;;;;;1.13;0.38;;;;;;;;;;5044525;28;20053;-73
2024/01/04 04:32:34;;;;;;;2.65;0.30;;;;;;;;;;5044246;28;20013;-75
2024/01/04 04:35:00;;;;;;;1.13;0.28;;;;;;;;;;5039357;28;20078;-73
2024/01/04 04:37:26;;;;;;;1.95;0.40;;;;;;;;;;5043621;28;20036;-76
2024/01/04 04:39:52;;;;;;;2.92;0.50;;;;;;;;;;5044463;28;20044;-74
2024/01/04 04:42:18;;;;;;;1.40;0.20;;;;;;;;;;5045760;28;20025;-75
2024/01/04 04:44:45;;;;;;;1.67;0.50;;;;;;;;;;5042386;28;20121;-75
2024/01/04 04:47:11;;;;;;;2.08;0.30;;;;;;;;;;5043401;28;20021;-75
2024/01/04 04:49:37;;;;;;;2.00;0.47;;;;;;;;;;5042907;28;20026;-78
2024/01/04 04:52:03;;;;;;;0.45;0.20;;;;;;;;;;5032079;28;20041;-77
2024/01/04 04:54:30;;;;;;;3.38;0.28;;;;;;;;;;5036803;28;20029;-74
2024/01/04 04:56:56;;;;;;;0.80;0.30;;;;;;;;;;5041068;28;20033;-75
2024/01/04 04:59:22;;;;;;;0.95;0.20;;;;;;;;;;5038719;28;20069;-78
2024/01/04 05:01:49;;;;;;;0.73;0.20;;;;;;;;;;5043439;28;20034;-75
2024/01/04 05:04:15;;;;;;;1.15;0.30;;;;;;;;;;5033846;28;20033;-75
2024/01/04 05:06:41;;;;;;;0.20;0.20;;;;;;;;;;5040636;28;20059;-78
2024/01/04 05:09:08;;;;;;;0.60;0.30;;;;;;;;;;5032940;28;20060;-75
2024/01/04 05:11:34;;;;;;;0.43;0.20;;;;;;;;;;5036041;28;20042;-76
2024/01/04 05:14:02;;;;;;;1.67;0.40;;;;;;;;;;5037876;28;20029;-78
2024/01/04 05:16:28;;;;;;;1.85;0.40;;;;;;;;;;5034562;28;20030;-78
2024/01/04 05:18:54;;;;;;;0.90;0.22;;;;;;;;;;5033043;28;20041;-77
2024/01/04 05:21:20;;;;;;;0.65;0.40;;;;;;;;;;5034503;28;20032;-76
2024/01/04 05:23:47;;;;;;;1.35;0.30;;;;;;;;;;5039963;28;20065;-76
2024/01/04 05:26:22;;;;;;;0.32;0.10;;;;;;;;;;5035598;28;20029;-76
2024/01/04 05:28:48;;;;;;;3.38;0.45;;;;;;;;;;5023964;28;20064;-77
2024/01/04 05:31:15;;;;;;;0.63;0.30;;;;;;;;;;5038697;28;20013;-75
2024/01/04 05:33:42;;;;;;;2.30;0.20;;;;;;;;;;5036808;28;20043;-75
2024/01/04 05:36:08;;;;;;;0.93;0.20;;;;;;;;;;5034074;28;20033;-76
2024/01/04 05:38:34;;;;;;;4.28;0.70;;;;;;;;;;5037988;28;20046;-75
2024/01/04 05:41:00;;;;;;;0.85;0.20;;;;;;;;;;5030604;28;20135;-75
2024/01/04 05:43:29;;;;;;;1.30;0.25;;;;;;;;;;5029834;28;20508;-75
2024/01/04 05:45:55;;;;;;;1.38;0.30;;;;;;;;;;5035906;28;20013;-75
2024/01/04 05:48:21;;;;;;;0.65;0.30;;;;;;;;;;5028343;28;20029;-75
2024/01/04 05:50:49;;;;;;;1.30;0.35;;;;;;;;;;5042273;28;20128;-75
2024/01/04 05:53:17;;;;;;;0.73;0.40;;;;;;;;;;5025193;28;20018;-74
2024/01/04 05:55:43;;;;;;;2.78;0.38;;;;;;;;;;5011121;28;20533;-74
2024/01/04 05:58:12;;;;;;;0.75;0.25;;;;;;;;;;5015169;28;20030;-77
2024/01/04 06:00:38;;;;;;;0.57;0.20;;;;;;;;;;5022508;28;20053;-78
2024/01/04 06:03:04;;;;;;;0.90;0.20;;;;;;;;;;5007888;28;20104;-76
2024/01/04 06:05:30;;;;;;;1.58;0.30;;;;;;;;;;5001604;28;20034;-77
2024/01/04 06:07:56;;;;;;;2.15;0.10;;;;;;;;;;4999381;28;20026;-78
2024/01/04 06:10:23;;;;;;;0.98;0.32;;;;;;;;;;5000856;28;20031;-77
2024/01/04 06:12:49;;;;;;;0.43;0.10;;;;;;;;;;5005106;28;20362;-77
2024/01/04 06:15:16;;;;;;;0.68;0.20;;;;;;;;;;5009233;28;20030;-78
2024/01/04 06:17:42;;;;;;;0.32;0.32;;;;;;;;;;4999626;28;20038;-76
2024/01/04 06:20:08;;;;;;;0.40;0.20;;;;;;;;;;4999654;28;20030;-77
2024/01/04 06:22:34;;;;;;;1.20;0.32;;;;;;;;;;5013824;28;20036;-78
2024/01/04 06:25:00;;;;;;;0.82;0.30;;;;;;;;;;5015645;28;20101;-76
2024/01/04 06:27:27;;;;;;;1.42;0.38;;;;;;;;;;5008908;28;20156;-78
2024/01/04 06:29:53;;;;;;;1.25;0.17;;;;;;;;;;5019041;28;20029;-78
2024/01/04 06:32:19;;;;;;;4.30;0.50;;;;;;;;;;5009937;28;20443;-76
2024/01/04 06:34:45;;;;;;;1.45;0.10;;;;;;;;;;5002389;28;20030;-76
2024/01/04 06:37:13;;;;;;;0.30;0.10;;;;;;;;;;5000340;28;20089;-77
2024/01/04 06:39:40;;;;;;;2.10;0.32;;;;;;;;;;4998157;28;20054;-78
2024/01/04 06:42:07;;;;;;;0.95;0.20;;;;;;;;;;4999191;28;20021;-78
2024/01/04 06:44:33;;;;;;;2.33;0.40;;;;;;;;;;5002979;28;20022;-77
2024/01/04 06:46:59;;;;;;;1.85;0.32;;;;;;;;;;5000947;28;20081;-78
2024/01/04 06:49:25;;;;;;;1.58;0.20;;;;;;;;;;4997810;28;20014;-77
2024/01/04 06:51:51;;;;;;;1.08;0.30;;;;;;;;;;4998062;28;20373;-77
2024/01/04 06:54:17;;;;;;;1.90;0.50;;;;;;;;;;5004728;28;20041;-77
2024/01/04 06:56:43;;;;;;;0.65;0.32;;;;;;;;;;4998332;28;20023;-77
2024/01/04 06:59:09;;;;;;;1.75;0.40;;;;;;;;;;5015389;28;20080;-76
2024/01/04 07:01:36;;;;;;;2.25;0.30;;;;;;;;;;5004788;28;20367;-77
2024/01/04 07:04:02;;;;;;;0.93;0.20;;;;;;;;;;5004313;28;20034;-76
2024/01/04 07:06:28;;;;;;;2.17;0.30;;;;;;;;;;4995547;28;20041;-75
2024/01/04 07:08:54;;;;;;;1.50;0.50;;;;;;;;;;4995828;28;20033;-75
2024/01/04 07:11:20;;;;;;;0.20;0.20;;;;;;;;;;5006606;28;20082;-76
2024/01/04 07:13:47;;;;;;;0.10;0.10;;;;;;;;;;5004750;28;20021;-74
2024/01/04 07:16:13;;;;;;;1.35;0.25;;;;;;;;;;4993387;28;20452;-76
2024/01/04 07:18:39;;;;;;;0.82;0.20;;;;;;;;;;4999438;28;20022;-75
2024/01/04 07:21:05;;;;;;;1.40;0.25;;;;;;;;;;4999234;28;20019;-75
2024/01/04 07:23:31;;;;;;;0.22;0.13;;;;;;;;;;5005232;28;20097;-77
2024/01/04 07:25:57;;;;;;;1.15;0.25;;;;;;;;;;5012797;28;20030;-75
2024/01/04 07:28:24;;;;;;;0.52;0.20;;;;;;;;;;5022322;28;20115;-75
2024/01/04 07:30:50;;;;;;;3.58;0.30;;;;;;;;;;5025854;28;20026;-77
2024/01/04 07:33:16;;;;;;;2.30;0.47;;;;;;;;;;5013050;28;20030;-75
2024/01/04 07:35:43;;;;;;;0.10;0.10;;;;;;;;;;5010155;28;20022;-76
2024/01/04 07:38:09;;;;;;;0.43;0.10;;;;;;;;;;5007003;28;20030;-76
2024/01/04 07:40:35;;;;;;;2.45;0.40;;;;;;;;;;5001465;28;20029;-75
2024/01/04 07:43:01;;;;;;;0.40;0.20;;;;;;;;;;4998889;28;20433;-76
2024/01/04 07:45:28;;;;;;;0.77;0.20;;;;;;;;;;5003464;28;20181;-76
2024/01/04 07:47:54;;;;;;;0.93;0.38;;;;;;;;;;5001251;28;20105;-76
2024/01/04 07:50:20;;;;;;;1.75;0.45;;;;;;;;;;4998305;28;20033;-77
2024/01/04 07:52:46;;;;;;;1.17;0.30;;;;;;;;;;4994719;28;20362;-76
2024/01/04 07:55:12;;;;;;;0.73;0.20;;;;;;;;;;5013570;28;20089;-78
2024/01/04 07:57:38;;;;;;;1.98;0.20;;;;;;;;;;5004859;28;20346;-77
2024/01/04 08:00:05;;;;;;;1.00;0.20;;;;;;;;;;5014254;28;20373;-74
2024/01/04 08:02:32;;;;;;;1.08;0.30;;;;;;;;;;4997518;28;20023;-78
2024/01/04 08:04:58;;;;;;;3.13;0.40;;;;;;;;;;5004605;28;20045;-77
2024/01/04 08:07:25;;;;;;;2.40;0.75;;;;;;;;;;4997010;28;20034;-76
2024/01/04 08:09:51;;;;;;;2.28;0.30;;;;;;;;;;5002823;28;20049;-77
2024/01/04 08:12:17;;;;;;;1.52;0.40;;;;;;;;;;4995132;28;20034;-77
2024/01/04 08:14:43;;;;;;;0.32;0.28;;;;;;;;;;5004769;28;20084;-75
2024/01/04 08:17:09;;;;;;;3.28;0.60;;;;;;;;;;5002966;28;20369;-76
2024/01/04 08:19:35;;;;;;;4.72;1.38;;;;;;;;;;5007252;28;20028;-77
2024/01/04 08:22:01;;;;;;;1.05;0.38;;;;;;;;;;5003291;28;20568;-76
2024/01/04 08:24:28;;;;;;;1.67;0.47;;;;;;;;;;5028575;28;20017;-75
2024/01/04 08:26:54;;;;;;;1.45;0.47;;;;;;;;;;5038390;28;20033;-73
2024/01/04 08:29:20;;;;;;;2.42;0.45;;;;;;;;;;5025621;28;20033;-75
2024/01/04 08:31:47;;;;;;;0.93;0.43;;;;;;;;;;5019334;28;20021;-75
2024/01/04 08:34:13;;;;;;;2.72;0.60;;;;;;;;;;5016753;28;20035;-73
2024/01/04 08:36:39;;;;;;;1.17;0.30;;;;;;;;;;5022446;28;20028;-75
2024/01/04 08:39:06;;;;;;;2.92;0.30;;;;;;;;;;5020429;28;20018;-74
2024/01/04 08:41:32;;;;;;;1.15;0.52;;;;;;;;;;5015150;28;20037;-73
2024/01/04 08:43:58;;;;;;;1.58;0.47;;;;;;;;;;5012160;28;20045;-77
2024/01/04 08:46:24;;;;;;;3.55;0.70;;;;;;;;;;5002971;28;20054;-76
2024/01/04 08:48:50;;;;;;;1.13;0.40;;;;;;;;;;5006043;28;20033;-76
2024/01/04 08:51:16;;;;;;;3.08;0.43;;;;;;;;;;5009947;28;20041;-76
2024/01/04 08:53:43;;;;;;;4.63;0.43;;;;;;;;;;5010954;28;20022;-75
2024/01/04 08:56:09;;;;;;;1.95;0.40;;;;;;;;;;5036688;28;20049;-75
2024/01/04 08:58:36;;;;;;;0.38;0.30;;;;;;;;;;5037540;28;20034;-73
2024/01/04 09:01:02;;;;;;;1.65;0.22;;;;;;;;;;5034200;28;20041;-75
2024/01/04 09:03:28;;;;;;;2.17;0.45;;;;;;;;;;5018343;28;20052;-74
2024/01/04 09:05:54;;;;;;;3.65;0.50;;;;;;;;;;5025655;28;20198;-73
2024/01/04 09:08:20;;;;;;;1.95;0.45;;;;;;;;;;5019390;28;20085;-77
2024/01/04 09:10:47;;;;;;;0.35;0.25;;;;;;;;;;5026823;28;20086;-76
2024/01/04 09:13:13;;;;;;;0.88;0.40;;;;;;;;;;5028328;28;20132;-76
2024/01/04 09:15:40;;;;;;;0.82;0.43;;;;;;;;;;5026796;28;20030;-75
2024/01/04 09:18:06;;;;;;;2.35;0.63;;;;;;;;;;5006111;28;20030;-77
2024/01/04 09:20:32;;;;;;;0.90;0.50;;;;;;;;;;5031208;28;20424;-79
2024/01/04 09:22:58;;;;;;;1.65;0.52;;;;;;;;;;5006704;28;20026;-77
2024/01/04 09:25:24;;;;;;;2.78;0.52;;;;;;;;;;5008009;28;20062;-78
2024/01/04 09:27:50;;;;;;;0.80;0.43;;;;;;;;;;5010826;28;20026;-79
2024/01/04 09:30:18;;;;;;;2.20;0.45;;;;;;;;;;5020597;28;20030;-77
2024/01/04 09:32:44;;;;;;;0.95;0.50;;;;;;;;;;5004588;28;20137;-77
2024/01/04 09:35:10;;;;;;;2.35;0.38;;;;;;;;;;5008726;28;20034;-76
2024/01/04 09:37:36;;;;;;;4.15;0.68;;;;;;;;;;5008206;28;20030;-76
2024/01/04 09:40:03;;;;;;;2.00;0.60;;;;;;;;;;5013043;28;20037;-78
2024/01/04 09:42:32;;;;;;;4.70;0.60;;;;;;;;;;4997303;28;20422;-77
2024/01/04 09:45:00;;;;;;;2.58;0.52;;;;;;;;;;5005325;28;20053;-77
2024/01/04 09:47:28;;;;;;;3.08;0.55;;;;;;;;;;4996713;28;20038;-76
2024/01/04 09:49:54;;;;;;;1.65;0.80;;;;;;;;;;5010660;28;20029;-76
2024/01/04 09:52:22;;;;;;;2.80;0.35;;;;;;;;;;5005363;28;20054;-77
2024/01/04 09:54:48;;;;;;;2.17;0.52;;;;;;;;;;4995869;28;20087;-76
2024/01/04 09:57:15;;;;;;;0.82;0.47;;;;;;;;;;5005128;28;20026;-76
2024/01/04 09:59:41;;;;;;;1.38;0.40;;;;;;;;;;5014700;28;20388;-77
2024/01/04 10:02:09;;;;;;;2.15;0.63;;;;;;;;;;5007351;28;20038;-76
2024/01/04 10:04:37;;;;;;;3.80;0.57;;;;;;;;;;4995167;28;20026;-76
2024/01/04 10:07:06;;;;;;;2.50;0.95;;;;;;;;;;5003619;28;20465;-77
2024/01/04 10:09:35;;;;;;;2.85;0.60;;;;;;;;;;5007377;28;20073;-80
2024/01/04 10:12:07;;;;;;;1.35;0.55;;;;;;;;;;5006232;28;20034;-82
2024/01/04 10:14:33;;;;;;;;;;;;;;;;;;5008282;28;20034;-81
2024/01/04 10:17:00;;;;;;;2.78;0.98;;;;;;;;;;5005843;28;19906;-79
2024/01/04 10:19:27;;;;;;;3.58;0.73;;;;;;;;;;5013502;28;20026;-80
2024/01/04 10:21:53;;;;;;;2.38;0.60;;;;;;;;;;5027145;28;20054;-78
2024/01/04 10:24:22;;;;;;;4.32;0.93;;;;;;;;;;5030289;28;20014;-79
2024/01/04 10:26:58;;;;;;;2.28;0.70;;;;;;;;;;5036130;28;20063;-80
2024/01/04 10:29:26;;;;;;;3.13;0.50;;;;;;;;;;5044520;28;20016;-79
2024/01/04 10:31:59;;;;;;;4.90;0.77;;;;;;;;;;5025844;28;20034;-83
2024/01/04 10:34:28;;;;;;;3.75;0.52;;;;;;;;;;5024461;28;20126;-80
2024/01/04 10:36:55;;;;;;;3.58;0.82;;;;;;;;;;5033803;28;20014;-79
2024/01/04 10:39:21;;;;;;;3.30;0.95;;;;;;;;;;5027021;28;20037;-79
2024/01/04 10:42:01;;;;;;;3.78;0.93;;;;;;;;;;5019273;28;20038;-81
2024/01/04 10:44:28;;;;;;;1.75;0.80;;;;;;;;;;5014411;28;20041;-81
2024/01/04 10:46:55;;;;;;;4.32;0.90;;;;;;;;;;5009151;28;20105;-82
2024/01/04 10:49:23;;;;;;;2.35;0.70;;;;;;;;;;5014456;28;20373;-82
2024/01/04 10:51:51;;;;;;;0.90;0.40;;;;;;;;;;5027189;28;20026;-82
2024/01/04 10:54:19;;;;;;;1.75;0.70;;;;;;;;;;5038470;28;20139;-81
2024/01/04 10:56:45;;;;;;;1.48;0.60;;;;;;;;;;5034063;28;20033;-82
2024/01/04 10:59:13;;;;;;;4.90;1.02;;;;;;;;;;5026951;28;20064;-81
2024/01/04 11:01:42;;;;;;;0.65;0.40;;;;;;;;;;5024084;28;20093;-81
2024/01/04 11:04:09;;;;;;;2.70;0.70;;;;;;;;;;5034337;28;20021;-81
2024/01/04 11:06:40;;;;;;;1.23;0.50;;;;;;;;;;5006772;28;20034;-82
2024/01/04 11:09:09;;;;;;;2.67;0.57;;;;;;;;;;5015795;28;20014;-81
2024/01/04 11:11:36;;;;;;;6.47;0.90;;;;;;;;;;5016541;28;20042;-83
2024/01/04 11:14:02;;;;;;;4.47;1.02;;;;;;;;;;5016176;28;20512;-82
2024/01/04 11:16:35;;;;;;;1.77;0.55;;;;;;;;;;5011668;28;20488;-81
2024/01/04 11:19:04;;;;;;;3.17;0.70;;;;;;;;;;5008883;28;20024;-84
2024/01/04 11:21:37;;;;;;;3.17;0.77;;;;;;;;;;5017121;28;20031;-80
2024/01/04 11:24:06;;;;;;;1.92;0.60;;;;;;;;;;5025101;28;20053;-83
2024/01/04 11:26:35;;;;;;;3.10;0.82;;;;;;;;;;5017489;28;20022;-82
2024/01/04 11:29:06;;;;;;;2.58;0.95;;;;;;;;;;5019986;28;20033;-82
2024/01/04 11:31:32;;;;;;;2.97;0.60;;;;;;;;;;5017424;28;20022;-83
2024/01/04 11:34:04;;;;;;;1.73;0.60;;;;;;;;;;5007330;28;20038;-81
2024/01/04 11:36:30;;;;;;;1.45;0.45;;;;;;;;;;5018907;28;20022;-83
2024/01/04 11:38:57;;;;;;;1.75;0.90;;;;;;;;;;5007184;28;20022;-82
2024/01/04 11:41:34;;;;;;;2.28;0.75;;;;;;;;;;5020314;28;20030;-81
2024/01/04 11:44:00;;;;;;;5.22;1.25;;;;;;;;;;5020782;28;20481;-82
2024/01/04 11:46:26;;;;;;;1.98;0.70;;;;;;;;;;5000912;28;20036;-82
2024/01/04 11:48:53;;;;;;;1.77;0.60;;;;;;;;;;5011836;28;20022;-82
2024/01/04 11:51:30;;;;;;;1.92;0.75;;;;;;;;;;5001847;28;20041;-82
2024/01/04 11:53:57;;;;;;;2.88;0.70;;;;;;;;;;5012193;28;20030;-83
2024/01/04 11:56:24;;;;;;;2.00;0.63;;;;;;;;;;5005316;28;20026;-83
2024/01/04 11:58:50;;;;;;;2.88;0.60;;;;;;;;;;5033311;28;20027;-82
2024/01/04 12:01:25;;;;;;;1.42;0.60;;;;;;;;;;5032308;28;20049;-81
2024/01/04 12:03:52;;;;;;;1.83;0.55;;;;;;;;;;5033876;28;20038;-82
2024/01/04 12:06:21;;;;;;;2.03;0.63;;;;;;;;;;5012916;28;20062;-82
2024/01/04 12:08:48;;;;;;;1.17;0.32;;;;;;;;;;5008986;28;20022;-82
2024/01/04 12:11:16;;;;;;;1.48;0.50;;;;;;;;;;5017582;28;20034;-82
2024/01/04 12:13:43;;;;;;;1.42;0.60;;;;;;;;;;5013589;28;20041;-83
2024/01/04 12:16:10;;;;;;;2.05;0.88;;;;;;;;;;5014139;28;20063;-82
2024/01/04 12:18:37;;;;;;;3.05;0.73;;;;;;;;;;5014452;28;20041;-82
2024/01/04 12:21:07;;;;;;;3.70;0.85;;;;;;;;;;5012555;28;20119;-83
2024/01/04 12:23:34;;;;;;;1.08;0.50;;;;;;;;;;5020894;28;20030;-82
2024/01/04 12:26:00;;;;;;;2.38;1.27;;;;;;;;;;5027478;28;20077;-82
2024/01/04 12:28:27;;;;;;;1.77;0.70;;;;;;;;;;5041102;28;20121;-84
2024/01/04 12:30:53;;;;;;;1.38;0.73;;;;;;;;;;5012877;28;20030;-83
2024/01/04 12:33:20;;;;;;;3.97;0.75;;;;;;;;;;5006377;28;20038;-83
2024/01/04 12:35:46;;;;;;;2.38;0.70;;;;;;;;;;5010830;28;20036;-82
2024/01/04 12:38:12;;;;;;;1.65;0.68;;;;;;;;;;5019272;28;20129;-82
2024/01/04 12:40:39;;;;;;;2.50;0.70;;;;;;;;;;5010622;28;20105;-83
2024/01/04 12:43:10;;;;;;;1.67;0.55;;;;;;;;;;5025102;28;20022;-83
2024/01/04 12:45:36;;;;;;;0.90;0.63;;;;;;;;;;5007949;28;20452;-83
2024/01/04 12:48:03;;;;;;;2.08;0.63;;;;;;;;;;5018458;28;20077;-82
2024/01/04 12:50:30;;;;;;;3.78;0.63;;;;;;;;;;5022115;28;20105;-81
2024/01/04 12:52:56;;;;;;;3.30;0.60;;;;;;;;;;5006079;28;20485;-82
2024/01/04 12:55:22;;;;;;;1.52;0.52;;;;;;;;;;5016916;28;20037;-83
2024/01/04 12:57:48;;;;;;;1.15;0.60;;;;;;;;;;5027073;28;20057;-83
2024/01/04 13:00:15;;;;;;;1.70;0.75;;;;;;;;;;5043322;28;20029;-83
2024/01/04 13:02:41;;;;;;;1.88;0.77;;;;;;;;;;5027403;28;20065;-82
2024/01/04 13:05:11;;;;;;;2.08;0.70;;;;;;;;;;5013910;28;20053;-83
2024/01/04 13:07:37;;;;;;;2.10;0.77;;;;;;;;;;5023381;28;20030;-83
2024/01/04 13:10:03;;;;;;;2.05;1.00;;;;;;;;;;5003433;28;20030;-84
2024/01/04 13:12:30;;;;;;;0.60;0.45;;;;;;;;;;5006790;28;20523;-83
2024/01/04 13:14:57;;;;;;;2.42;0.90;;;;;;;;;;5008555;28;20030;-83
2024/01/04 13:17:27;;;;;;;1.40;0.68;;;;;;;;;;5004994;28;20445;-82
2024/01/04 13:19:54;;;;;;;4.97;1.05;;;;;;;;;;5021258;28;20025;-82
2024/01/04 13:22:28;;;;;;;2.15;0.63;;;;;;;;;;5023338;28;20057;-82
2024/01/04 13:24:57;;;;;;;3.17;0.85;;;;;;;;;;5030898;28;20025;-84
2024/01/04 13:27:28;;;;;;;1.17;0.43;;;;;;;;;;5023468;28;20022;-84
2024/01/04 13:29:56;;;;;;;1.15;0.30;;;;;;;;;;5023091;28;20027;-83
2024/01/04 13:32:22;;;;;;;1.10;0.30;;;;;;;;;;5019984;28;20443;-80
2024/01/04 13:34:49;;;;;;;0.57;0.38;;;;;;;;;;5031126;28;20036;-83
2024/01/04 13:37:18;;;;;;;2.05;0.45;;;;;;;;;;5029053;28;20086;-83
2024/01/04 13:39:44;;;;;;;0.80;0.47;;;;;;;;;;5037566;28;20056;-83
2024/01/04 13:42:11;;;;;;;0.65;0.28;;;;;;;;;;5020901;28;20126;-84
2024/01/04 13:44:37;;;;;;;0.40;0.40;;;;;;;;;;5023096;28;20003;-84
2024/01/04 13:47:03;;;;;;;0.40;0.25;;;;;;;;;;5031989;28;20023;-83
2024/01/04 13:49:29;;;;;;;0.63;0.40;;;;;;;;;;5024611;28;20010;-83
2024/01/04 13:52:03;;;;;;;0.73;0.32;;;;;;;;;;5029545;28;20033;-84
2024/01/04 13:54:29;;;;;;;0.80;0.30;;;;;;;;;;5025085;28;20434;-82
2024/01/04 13:56:57;;;;;;;0.95;0.38;;;;;;;;;;5027194;28;20083;-84
2024/01/04 13:59:29;;;;;;;1.33;0.32;;;;;;;;;;5022713;28;20017;-86
2024/01/04 14:02:16;;;;;;;11.05;6.72;;;;;;;;;;5011564;28;20034;-86
2024/01/04 14:04:42;;;;;;;5.93;4.70;;;;;;;;;;5026744;28;20045;-84
2024/01/04 14:07:09;;;;;;;3.05;2.67;;;;;;;;;;5028722;28;20017;-84
2024/01/04 14:09:35;;;;;;;5.22;2.13;;;;;;;;;;5020119;28;20024;-84
2024/01/04 14:12:03;;;;;;;1.52;0.70;;;;;;;;;;5030886;28;20036;-85
2024/01/04 14:14:29;;;;;;;4.88;1.73;;;;;;;;;;5027939;28;20029;-83
2024/01/04 14:16:55;;;;;;;3.50;2.95;;;;;;;;;;5037753;28;20021;-83
2024/01/04 14:19:21;;;;;;;6.65;4.18;;;;;;;;;;5038267;28;20034;-82
2024/01/04 14:21:47;;;;;;;3.08;1.80;;;;;;;;;;5037456;28;20044;-84
2024/01/04 14:24:15;;;;;;;3.30;1.35;;;;;;;;;;5030400;28;20033;-85
2024/01/04 14:26:41;;;;;;;2.60;1.38;;;;;;;;;;5031929;28;20022;-83
2024/01/04 14:29:07;;;;;;;2.55;1.80;;;;;;;;;;5029515;28;20044;-82
2024/01/04 14:31:33;;;;;;;1.23;1.13;;;;;;;;;;5038340;28;20029;-84
2024/01/04 14:33:59;;;;;;;0.93;0.65;;;;;;;;;;5024015;28;20029;-81
2024/01/04 14:36:25;;;;;;;0.80;0.60;;;;;;;;;;5015785;28;20073;-83
2024/01/04 14:38:52;;;;;;;1.45;0.57;;;;;;;;;;5018209;28;20010;-84
2024/01/04 14:41:19;;;;;;;0.93;0.30;;;;;;;;;;5010905;28;20489;-83